createdAt,value
2018-05-06T00:01:59.363Z,18.93
2018-05-06T00:04:26.951Z,18.92
2018-05-06T00:06:55.300Z,18.91
2018-05-06T00:09:22.984Z,18.92
2018-05-06T00:11:50.559Z,18.90
2018-05-06T00:14:18.144Z,18.95
2018-05-06T00:16:45.880Z,18.96
2018-05-06T00:19:13.755Z,19.03
2018-05-06T00:21:41.319Z,19.06
2018-05-06T00:24:09.094Z,19.07
2018-05-06T00:26:36.685Z,19.08
2018-05-06T00:29:04.279Z,19.07
2018-05-06T00:31:32.094Z,19.10
2018-05-06T00:33:59.737Z,19.16
2018-05-06T00:36:27.307Z,19.23
2018-05-06T00:38:54.936Z,19.29
2018-05-06T00:41:22.615Z,19.35
2018-05-06T00:43:50.265Z,19.38
2018-05-06T00:46:18.682Z,19.39
2018-05-06T00:48:46.360Z,19.39
2018-05-06T00:51:13.957Z,19.36
2018-05-06T00:53:41.758Z,19.36
2018-05-06T00:56:09.341Z,19.39
2018-05-06T00:58:36.968Z,19.42
2018-05-06T01:01:04.605Z,19.40
2018-05-06T01:03:32.254Z,19.36
2018-05-06T01:05:59.901Z,19.36
2018-05-06T01:08:27.902Z,19.37
2018-05-06T01:10:55.506Z,19.36
2018-05-06T01:13:23.088Z,19.33
2018-05-06T01:15:50.708Z,19.33
2018-05-06T01:18:18.316Z,19.30
2018-05-06T01:20:45.884Z,19.25
2018-05-06T01:23:14.322Z,19.23
2018-05-06T01:25:41.977Z,19.19
2018-05-06T01:28:10.544Z,19.21
2018-05-06T01:30:38.328Z,19.21
2018-05-06T01:33:05.896Z,19.24
2018-05-06T01:35:33.540Z,19.27
2018-05-06T01:38:01.169Z,19.30
2018-05-06T01:40:28.777Z,19.28
2018-05-06T01:42:56.349Z,19.24
2018-05-06T01:45:24.068Z,19.24
2018-05-06T01:47:51.704Z,19.22
2018-05-06T01:50:19.279Z,19.20
2018-05-06T01:52:47.914Z,19.08
2018-05-06T01:55:15.584Z,18.97
2018-05-06T01:57:43.190Z,18.89
2018-05-06T02:00:11.876Z,18.84
2018-05-06T02:02:39.464Z,18.80
2018-05-06T02:05:07.096Z,18.71
2018-05-06T02:07:34.715Z,18.56
2018-05-06T02:10:02.359Z,18.39
2018-05-06T02:12:30.686Z,18.28
2018-05-06T02:14:58.400Z,18.23
2018-05-06T02:17:25.976Z,18.19
2018-05-06T02:19:53.559Z,18.13
2018-05-06T02:22:21.180Z,18.12
2018-05-06T02:24:48.749Z,18.10
2018-05-06T02:27:16.377Z,18.07
2018-05-06T02:29:43.992Z,18.06
2018-05-06T02:32:11.663Z,18.04
2018-05-06T02:34:39.257Z,18.05
2018-05-06T02:37:07.040Z,18.04
2018-05-06T02:39:34.656Z,18.00
2018-05-06T02:42:02.240Z,17.93
2018-05-06T02:44:29.928Z,17.89
2018-05-06T02:46:57.493Z,17.89
2018-05-06T02:49:25.964Z,17.91
2018-05-06T02:51:53.680Z,17.92
2018-05-06T02:54:21.265Z,17.94
2018-05-06T02:56:49.978Z,17.96
2018-05-06T02:59:17.711Z,17.99
2018-05-06T03:01:45.364Z,18.02
2018-05-06T03:04:13.012Z,18.05
2018-05-06T03:06:40.728Z,18.08
2018-05-06T03:09:08.313Z,18.09
2018-05-06T03:11:35.895Z,18.09
2018-05-06T03:14:03.600Z,18.09
2018-05-06T03:16:31.192Z,18.06
2018-05-06T03:18:59.399Z,18.05
2018-05-06T03:21:27.008Z,18.06
2018-05-06T03:23:54.640Z,18.08
2018-05-06T03:26:22.231Z,18.15
2018-05-06T03:28:49.851Z,18.20
2018-05-06T03:31:17.455Z,18.25
2018-05-06T03:33:45.032Z,18.31
2018-05-06T03:36:12.812Z,18.38
2018-05-06T03:38:40.384Z,18.43
2018-05-06T03:41:07.970Z,18.53
2018-05-06T03:43:35.627Z,18.61
2018-05-06T03:46:03.308Z,18.67
2018-05-06T03:48:30.883Z,18.78
2018-05-06T03:50:59.496Z,18.88
2018-05-06T03:53:27.127Z,18.97
2018-05-06T03:56:16.368Z,19.05
2018-05-06T03:58:55.932Z,19.14
2018-05-06T04:01:25.313Z,19.24
2018-05-06T04:03:52.893Z,19.31
2018-05-06T04:06:21.103Z,19.41
2018-05-06T04:08:48.831Z,19.52
2018-05-06T04:11:16.472Z,19.58
2018-05-06T04:13:44.132Z,19.63
2018-05-06T04:16:12.039Z,19.68
2018-05-06T04:18:39.639Z,19.73
2018-05-06T04:21:07.264Z,19.84
2018-05-06T04:23:34.988Z,19.92
2018-05-06T04:26:02.560Z,19.98
2018-05-06T04:28:30.200Z,20.02
2018-05-06T04:30:57.938Z,20.10
2018-05-06T04:33:25.510Z,20.20
2018-05-06T04:35:53.809Z,20.26
2018-05-06T04:38:21.424Z,20.27
2018-05-06T04:40:49.012Z,20.24
2018-05-06T04:43:16.643Z,20.28
2018-05-06T04:45:44.295Z,20.36
2018-05-06T04:48:11.888Z,20.39
2018-05-06T04:50:40.418Z,20.48
2018-05-06T04:53:08.031Z,20.60
2018-05-06T04:55:35.631Z,20.58
2018-05-06T04:58:03.210Z,20.53
2018-05-06T05:00:30.976Z,20.52
2018-05-06T05:02:58.612Z,20.53
2018-05-06T05:05:26.197Z,20.58
2018-05-06T05:07:53.811Z,20.63
2018-05-06T05:10:21.381Z,20.65
2018-05-06T05:12:48.968Z,20.65
2018-05-06T05:15:16.785Z,20.57
2018-05-06T05:17:44.370Z,20.54
2018-05-06T05:20:12.048Z,20.57
2018-05-06T05:22:39.673Z,20.66
2018-05-06T05:25:07.311Z,20.82
2018-05-06T05:27:34.958Z,20.94
2018-05-06T05:30:02.692Z,21.11
2018-05-06T05:32:30.336Z,21.22
2018-05-06T05:34:57.924Z,21.36
2018-05-06T05:37:25.543Z,21.44
2018-05-06T05:39:53.672Z,21.54
2018-05-06T05:42:21.266Z,21.77
2018-05-06T05:44:48.897Z,21.91
2018-05-06T05:47:16.479Z,22.08
2018-05-06T05:49:44.060Z,22.23
2018-05-06T05:52:11.834Z,22.20
2018-05-06T05:54:39.419Z,22.26
2018-05-06T05:57:07.004Z,22.33
2018-05-06T05:59:34.719Z,22.39
2018-05-06T06:02:02.500Z,22.65
2018-05-06T06:04:30.128Z,22.81
2018-05-06T06:06:57.763Z,22.91
2018-05-06T06:09:25.360Z,22.95
2018-05-06T06:11:52.983Z,23.14
2018-05-06T06:14:20.711Z,23.42
2018-05-06T06:16:48.348Z,23.72
2018-05-06T06:19:15.993Z,24.05
2018-05-06T06:21:43.740Z,24.36
2018-05-06T06:24:11.344Z,24.51
2018-05-06T06:26:38.915Z,24.75
2018-05-06T06:29:06.550Z,24.89
2018-05-06T06:31:34.135Z,24.98
2018-05-06T06:34:01.771Z,25.04
2018-05-06T06:36:29.416Z,25.25
2018-05-06T06:38:57.058Z,25.31
2018-05-06T06:41:24.683Z,25.41
2018-05-06T06:43:52.493Z,25.67
2018-05-06T06:46:20.081Z,25.98
2018-05-06T06:48:47.755Z,26.39
2018-05-06T06:51:15.374Z,26.19
2018-05-06T06:53:43.712Z,26.62
2018-05-06T06:56:11.347Z,26.97
2018-05-06T06:58:38.970Z,27.22
2018-05-06T07:01:06.602Z,27.53
2018-05-06T07:03:34.247Z,27.76
2018-05-06T07:06:01.935Z,27.93
2018-05-06T07:08:29.507Z,28.03
2018-05-06T07:10:57.191Z,28.14
2018-05-06T07:13:24.897Z,28.45
2018-05-06T07:15:52.492Z,28.45
2018-05-06T07:18:20.170Z,28.61
2018-05-06T07:20:47.888Z,28.69
2018-05-06T07:23:15.477Z,28.92
2018-05-06T07:25:43.112Z,29.00
2018-05-06T07:28:11.287Z,28.86
2018-05-06T07:30:39.636Z,28.90
2018-05-06T07:33:07.232Z,29.02
2018-05-06T07:35:34.847Z,29.08
2018-05-06T07:38:02.490Z,29.24
2018-05-06T07:40:30.064Z,29.44
2018-05-06T07:42:57.679Z,29.63
2018-05-06T07:45:25.317Z,29.65
2018-05-06T07:47:52.897Z,29.69
2018-05-06T07:50:20.641Z,29.93
2018-05-06T07:52:48.860Z,30.04
2018-05-06T07:55:17.443Z,30.31
2018-05-06T07:57:45.077Z,30.55
2018-05-06T08:00:12.651Z,30.64
2018-05-06T08:02:40.259Z,30.75
2018-05-06T08:05:09.848Z,30.77
2018-05-06T08:07:37.478Z,30.81
2018-05-06T08:10:05.680Z,30.82
2018-05-06T08:12:33.468Z,30.74
2018-05-06T08:15:01.044Z,30.30
2018-05-06T08:17:28.624Z,30.36
2018-05-06T08:19:56.275Z,30.38
2018-05-06T08:22:23.865Z,30.27
2018-05-06T08:24:51.447Z,30.66
2018-05-06T08:27:19.150Z,30.61
2018-05-06T08:29:46.737Z,30.83
2018-05-06T08:32:14.377Z,31.02
2018-05-06T08:34:42.053Z,30.88
2018-05-06T08:37:09.631Z,30.94
2018-05-06T08:39:37.203Z,31.10
2018-05-06T08:42:04.950Z,30.85
2018-05-06T08:44:32.527Z,30.64
2018-05-06T08:47:00.112Z,30.51
2018-05-06T08:49:27.849Z,30.59
2018-05-06T08:51:55.424Z,30.51
2018-05-06T08:54:23.080Z,30.40
2018-05-06T08:56:50.776Z,30.74
2018-05-06T08:59:18.433Z,30.86
2018-05-06T09:01:46.034Z,30.95
2018-05-06T09:04:13.768Z,31.23
2018-05-06T09:06:42.061Z,31.21
2018-05-06T09:09:09.648Z,31.07
2018-05-06T09:11:37.332Z,31.23
2018-05-06T09:14:04.984Z,31.17
2018-05-06T09:16:32.590Z,30.90
2018-05-06T09:19:00.350Z,30.59
2018-05-06T09:21:27.943Z,30.21
2018-05-06T09:23:55.513Z,30.00
2018-05-06T09:26:23.202Z,29.89
2018-05-06T09:28:50.884Z,29.82
2018-05-06T09:31:18.460Z,29.48
2018-05-06T09:33:46.200Z,29.51
2018-05-06T09:36:13.835Z,29.48
2018-05-06T09:38:41.479Z,29.65
2018-05-06T09:41:09.240Z,29.79
2018-05-06T09:43:36.847Z,29.75
2018-05-06T09:46:04.447Z,29.40
2018-05-06T09:48:32.144Z,29.19
2018-05-06T09:50:59.720Z,29.26
2018-05-06T09:53:27.287Z,29.05
2018-05-06T09:55:55.008Z,29.09
2018-05-06T09:58:22.649Z,28.97
2018-05-06T10:00:50.455Z,29.16
2018-05-06T10:03:18.180Z,29.41
2018-05-06T10:05:45.755Z,29.59
2018-05-06T10:08:13.691Z,29.89
2018-05-06T10:10:41.420Z,30.17
2018-05-06T10:13:09.003Z,30.52
2018-05-06T10:15:36.657Z,30.99
2018-05-06T10:18:04.374Z,31.03
2018-05-06T10:20:32.027Z,30.77
2018-05-06T10:22:59.653Z,30.61
2018-05-06T10:25:27.257Z,30.62
2018-05-06T10:27:54.899Z,30.77
2018-05-06T10:30:22.534Z,30.77
2018-05-06T10:32:50.171Z,31.08
2018-05-06T10:35:17.812Z,31.10
2018-05-06T10:37:45.389Z,31.27
2018-05-06T10:40:13.184Z,31.14
2018-05-06T10:42:40.769Z,31.02
2018-05-06T10:45:08.419Z,30.71
2018-05-06T10:47:36.032Z,30.60
2018-05-06T10:50:03.675Z,30.71
2018-05-06T10:52:31.281Z,30.38
2018-05-06T10:54:59.755Z,30.39
2018-05-06T10:57:27.420Z,30.59
2018-05-06T10:59:55.007Z,30.64
2018-05-06T11:02:22.630Z,30.44
2018-05-06T11:04:50.215Z,30.42
2018-05-06T11:07:17.827Z,30.36
2018-05-06T11:09:45.747Z,30.06
2018-05-06T11:12:13.337Z,28.69
2018-05-06T11:14:40.920Z,27.05
2018-05-06T11:17:08.563Z,25.83
2018-05-06T11:19:36.185Z,25.35
2018-05-06T11:22:03.841Z,24.86
2018-05-06T11:24:31.595Z,24.23
2018-05-06T11:26:59.185Z,23.81
2018-05-06T11:29:26.838Z,23.58
2018-05-06T11:31:54.500Z,23.38
2018-05-06T11:34:22.149Z,23.26
2018-05-06T11:36:49.723Z,23.17
2018-05-06T11:39:17.448Z,23.04
2018-05-06T11:41:45.031Z,23.04
2018-05-06T11:44:12.620Z,22.91
2018-05-06T11:46:40.310Z,22.90
2018-05-06T11:49:07.881Z,22.90
2018-05-06T11:51:35.472Z,22.95
2018-05-06T11:54:03.095Z,23.08
2018-05-06T11:56:30.656Z,23.22
2018-05-06T11:58:58.245Z,23.21
2018-05-06T12:01:26.061Z,23.17
2018-05-06T12:03:53.735Z,23.25
2018-05-06T12:06:21.393Z,23.32
2018-05-06T12:08:49.273Z,23.32
2018-05-06T12:11:16.917Z,23.27
2018-05-06T12:13:44.504Z,23.30
2018-05-06T12:16:12.128Z,23.40
2018-05-06T12:18:39.701Z,23.43
2018-05-06T12:21:07.299Z,23.29
2018-05-06T12:23:34.952Z,23.09
2018-05-06T12:26:02.597Z,22.75
2018-05-06T12:28:30.374Z,22.53
2018-05-06T12:30:58.228Z,22.39
2018-05-06T12:33:25.909Z,22.12
2018-05-06T12:35:53.650Z,21.92
2018-05-06T12:38:21.375Z,21.81
2018-05-06T12:40:48.953Z,21.81
2018-05-06T12:43:16.584Z,21.81
2018-05-06T12:45:44.212Z,21.82
2018-05-06T12:48:11.860Z,21.83
2018-05-06T12:50:39.494Z,21.83
2018-05-06T12:53:07.130Z,21.84
2018-05-06T12:55:34.707Z,21.86
2018-05-06T12:58:02.306Z,21.90
2018-05-06T13:00:30.019Z,21.99
2018-05-06T13:02:57.647Z,21.94
2018-05-06T13:05:25.280Z,21.82
2018-05-06T13:07:52.983Z,21.73
2018-05-06T13:10:20.701Z,21.69
2018-05-06T13:12:48.432Z,21.72
2018-05-06T13:15:16.137Z,21.71
2018-05-06T13:17:43.711Z,21.74
2018-05-06T13:20:11.381Z,21.71
2018-05-06T13:22:39.101Z,21.58
2018-05-06T13:25:06.683Z,21.56
2018-05-06T13:27:34.321Z,21.60
2018-05-06T13:30:02.119Z,21.56
2018-05-06T13:32:30.491Z,21.58
2018-05-06T13:34:58.161Z,21.39
2018-05-06T13:37:25.831Z,21.23
2018-05-06T13:39:53.482Z,21.13
2018-05-06T13:42:21.069Z,21.05
2018-05-06T13:44:48.795Z,21.05
2018-05-06T13:47:16.395Z,21.05
2018-05-06T13:49:43.987Z,21.03
2018-05-06T13:52:11.828Z,21.00
2018-05-06T13:54:39.468Z,20.96
2018-05-06T13:57:07.076Z,20.94
2018-05-06T13:59:34.790Z,20.94
2018-05-06T14:02:03.179Z,20.96
2018-05-06T14:04:30.984Z,21.00
2018-05-06T14:06:58.708Z,21.09
2018-05-06T14:09:26.289Z,21.14
2018-05-06T14:11:53.856Z,21.24
2018-05-06T14:14:22.588Z,21.35
2018-05-06T14:16:50.155Z,21.47
2018-05-06T14:19:17.807Z,21.63
2018-05-06T14:21:45.449Z,21.76
2018-05-06T14:24:13.040Z,21.87
2018-05-06T14:26:40.688Z,22.00
2018-05-06T14:29:08.380Z,22.11
2018-05-06T14:31:35.951Z,22.24
2018-05-06T14:34:04.359Z,22.36
2018-05-06T14:36:31.974Z,22.44
2018-05-06T14:38:59.608Z,22.52
2018-05-06T14:41:27.256Z,22.62
2018-05-06T14:43:54.864Z,22.73
2018-05-06T14:46:34.226Z,22.82
2018-05-06T14:49:01.851Z,22.91
2018-05-06T14:51:29.428Z,22.98
2018-05-06T14:53:56.987Z,22.91
2018-05-06T14:56:25.350Z,22.88
2018-05-06T14:58:52.979Z,22.80
2018-05-06T15:01:20.580Z,22.53
2018-05-06T15:03:48.253Z,22.36
2018-05-06T15:06:15.860Z,22.16
2018-05-06T15:08:43.495Z,22.03
2018-05-06T15:11:11.205Z,21.88
2018-05-06T15:13:38.854Z,21.72
2018-05-06T15:16:06.800Z,21.53
2018-05-06T15:18:34.576Z,21.38
2018-05-06T15:21:02.172Z,21.26
2018-05-06T15:23:29.809Z,21.13
2018-05-06T15:25:57.510Z,20.82
2018-05-06T15:28:25.083Z,20.59
2018-05-06T15:30:52.668Z,20.45
2018-05-06T15:33:20.420Z,20.38
2018-05-06T15:35:48.004Z,20.36
2018-05-06T15:38:16.405Z,20.38
2018-05-06T15:40:44.043Z,20.42
2018-05-06T15:43:11.662Z,20.45
2018-05-06T15:45:39.320Z,20.46
2018-05-06T15:48:07.032Z,20.47
2018-05-06T15:50:34.860Z,20.44
2018-05-06T15:53:02.454Z,20.43
2018-05-06T15:55:30.183Z,20.42
2018-05-06T15:57:57.806Z,20.44
2018-05-06T16:00:25.391Z,20.48
2018-05-06T16:03:05.055Z,20.50
2018-05-06T16:05:32.637Z,20.47
2018-05-06T16:08:00.292Z,20.41
2018-05-06T16:10:28.016Z,20.34
2018-05-06T16:12:55.657Z,20.29
2018-05-06T16:15:23.329Z,20.24
2018-05-06T16:17:51.061Z,20.23
2018-05-06T16:20:18.651Z,20.23
2018-05-06T16:22:46.250Z,20.20
2018-05-06T16:25:13.932Z,20.17
2018-05-06T16:27:41.580Z,20.12
2018-05-06T16:30:09.155Z,20.08
2018-05-06T16:32:38.901Z,19.97
2018-05-06T16:35:06.496Z,19.88
2018-05-06T16:37:34.169Z,19.74
2018-05-06T16:40:01.819Z,19.65
2018-05-06T16:42:29.435Z,19.58
2018-05-06T16:44:57.032Z,19.53
2018-05-06T16:47:24.661Z,19.58
2018-05-06T16:49:52.237Z,19.63
2018-05-06T16:52:19.914Z,19.61
2018-05-06T16:54:47.612Z,19.63
2018-05-06T16:57:15.355Z,19.71
2018-05-06T16:59:42.945Z,19.78
2018-05-06T17:02:10.660Z,19.81
2018-05-06T17:04:38.300Z,19.88
2018-05-06T17:07:05.893Z,19.97
2018-05-06T17:09:33.685Z,20.07
2018-05-06T17:12:01.337Z,20.17
2018-05-06T17:14:28.923Z,20.15
2018-05-06T17:16:56.681Z,20.23
2018-05-06T17:19:24.380Z,20.32
2018-05-06T17:21:52.012Z,20.39
2018-05-06T17:24:19.805Z,20.42
2018-05-06T17:26:47.409Z,20.42
2018-05-06T17:29:15.017Z,20.47
2018-05-06T17:31:42.773Z,20.47
2018-05-06T17:34:10.457Z,20.43
2018-05-06T17:36:38.045Z,20.37
2018-05-06T17:39:06.724Z,20.29
2018-05-06T17:41:34.390Z,20.29
2018-05-06T17:44:01.989Z,20.24
2018-05-06T17:46:29.659Z,20.24
2018-05-06T17:48:57.329Z,20.26
2018-05-06T17:51:24.915Z,20.25
2018-05-06T17:53:52.544Z,20.25
2018-05-06T17:56:20.135Z,20.28
2018-05-06T17:58:47.769Z,20.25
2018-05-06T18:01:15.431Z,20.22
2018-05-06T18:03:43.001Z,20.20
2018-05-06T18:06:10.645Z,20.15
2018-05-06T18:08:38.313Z,20.04
2018-05-06T18:11:05.956Z,19.98
2018-05-06T18:13:33.544Z,19.99
2018-05-06T18:16:01.242Z,20.02
2018-05-06T18:18:28.883Z,20.04
2018-05-06T18:20:56.605Z,20.10
2018-05-06T18:23:24.320Z,20.17
2018-05-06T18:25:51.907Z,20.27
2018-05-06T18:28:19.505Z,20.31
2018-05-06T18:30:47.223Z,20.34
2018-05-06T18:33:14.869Z,20.34
2018-05-06T18:35:42.476Z,20.26
2018-05-06T18:38:10.156Z,20.17
2018-05-06T18:40:37.730Z,20.13
2018-05-06T18:43:05.346Z,20.13
2018-05-06T18:45:32.992Z,20.05
2018-05-06T18:48:00.685Z,20.08
2018-05-06T18:50:28.300Z,20.08
2018-05-06T18:52:56.822Z,20.09
2018-05-06T18:55:24.467Z,20.13
2018-05-06T18:57:52.065Z,20.17
2018-05-06T19:00:19.732Z,20.17
2018-05-06T19:02:47.402Z,20.18
2018-05-06T19:05:14.969Z,20.13
2018-05-06T19:07:43.306Z,20.09
2018-05-06T19:10:11.883Z,20.02
2018-05-06T19:12:39.564Z,19.96
2018-05-06T19:15:07.242Z,19.83
2018-05-06T19:17:34.817Z,19.69
2018-05-06T19:20:02.404Z,19.60
2018-05-06T19:22:30.196Z,19.56
2018-05-06T19:24:57.870Z,19.55
2018-05-06T19:27:25.456Z,19.57
2018-05-06T19:29:53.084Z,19.60
2018-05-06T19:32:20.738Z,19.69
2018-05-06T19:34:49.247Z,19.77
2018-05-06T19:37:16.873Z,19.89
2018-05-06T19:39:45.273Z,20.00
2018-05-06T19:42:12.954Z,20.09
2018-05-06T19:44:40.583Z,20.16
2018-05-06T19:47:08.229Z,20.20
2018-05-06T19:49:35.809Z,20.25
2018-05-06T19:52:03.529Z,20.28
2018-05-06T19:54:31.111Z,20.33
2018-05-06T19:56:58.679Z,20.35
2018-05-06T19:59:26.373Z,20.40
2018-05-06T20:01:53.971Z,20.45
2018-05-06T20:04:21.603Z,20.52
2018-05-06T20:06:49.219Z,20.58
2018-05-06T20:09:16.793Z,20.61
2018-05-06T20:11:44.366Z,20.64
2018-05-06T20:14:12.011Z,20.66
2018-05-06T20:16:39.851Z,20.67
2018-05-06T20:19:07.508Z,20.65
2018-05-06T20:21:35.331Z,20.66
2018-05-06T20:24:03.141Z,20.67
2018-05-06T20:26:30.775Z,20.66
2018-05-06T20:28:58.464Z,20.71
2018-05-06T20:31:26.080Z,20.71
2018-05-06T20:33:53.699Z,20.73
2018-05-06T20:36:21.419Z,20.76
2018-05-06T20:38:50.012Z,20.80
2018-05-06T20:41:17.663Z,20.83
2018-05-06T20:43:46.022Z,20.79
2018-05-06T20:46:13.581Z,20.71
2018-05-06T20:48:41.163Z,20.64
2018-05-06T20:51:08.845Z,20.57
2018-05-06T20:53:36.499Z,20.52
2018-05-06T20:56:04.168Z,20.48
2018-05-06T20:58:31.880Z,20.37
2018-05-06T21:00:59.517Z,20.23
2018-05-06T21:03:27.098Z,20.12
2018-05-06T21:05:54.737Z,20.05
2018-05-06T21:08:22.310Z,20.01
2018-05-06T21:10:49.885Z,19.98
2018-05-06T21:13:17.510Z,19.95
2018-05-06T21:15:45.102Z,19.94
2018-05-06T21:18:12.735Z,19.95
2018-05-06T21:20:40.408Z,19.91
2018-05-06T21:23:07.991Z,19.88
2018-05-06T21:25:36.029Z,19.84
2018-05-06T21:28:03.677Z,19.81
2018-05-06T21:30:31.278Z,19.81
2018-05-06T21:32:58.882Z,19.86
2018-05-06T21:35:26.605Z,19.95
2018-05-06T21:37:54.179Z,20.03
2018-05-06T21:40:21.837Z,20.09
2018-05-06T21:42:49.546Z,20.16
2018-05-06T21:45:17.190Z,20.19
2018-05-06T21:47:44.772Z,20.33
2018-05-06T21:50:12.462Z,20.33
2018-05-06T21:52:40.040Z,20.41
2018-05-06T21:55:07.636Z,20.42
2018-05-06T21:57:35.370Z,20.49
2018-05-06T22:00:02.985Z,20.49
2018-05-06T22:02:30.628Z,20.51
2018-05-06T22:04:58.402Z,20.51
2018-05-06T22:07:26.053Z,20.54
2018-05-06T22:09:53.720Z,20.55
2018-05-06T22:12:21.460Z,20.54
2018-05-06T22:14:49.189Z,20.54
2018-05-06T22:17:16.841Z,20.53
2018-05-06T22:19:44.627Z,20.55
2018-05-06T22:22:12.196Z,20.56
2018-05-06T22:24:39.792Z,20.58
2018-05-06T22:27:07.559Z,20.60
2018-05-06T22:29:35.193Z,20.58
2018-05-06T22:32:02.859Z,20.56
2018-05-06T22:34:30.535Z,20.57
2018-05-06T22:36:58.177Z,20.54
2018-05-06T22:39:25.820Z,20.53
2018-05-06T22:41:53.447Z,20.55
2018-05-06T22:44:21.096Z,20.56
2018-05-06T22:46:48.684Z,20.58
2018-05-06T22:49:16.391Z,20.58
2018-05-06T22:51:43.991Z,20.58
2018-05-06T22:54:11.589Z,20.60
2018-05-06T22:56:39.220Z,20.60
2018-05-06T22:59:06.801Z,20.60
2018-05-06T23:01:34.428Z,20.60
2018-05-06T23:04:02.080Z,20.64
2018-05-06T23:06:29.703Z,20.61
2018-05-06T23:08:57.368Z,20.61
2018-05-06T23:11:25.090Z,20.61
2018-05-06T23:13:52.733Z,20.60
2018-05-06T23:16:20.402Z,20.59
2018-05-06T23:18:48.030Z,20.56
2018-05-06T23:21:15.672Z,20.53
2018-05-06T23:23:43.266Z,20.53
2018-05-06T23:26:10.984Z,20.49
2018-05-06T23:28:38.603Z,20.44
2018-05-06T23:31:06.231Z,20.44
2018-05-06T23:33:33.877Z,20.42
2018-05-06T23:36:01.552Z,20.40
2018-05-06T23:38:29.156Z,20.42
2018-05-06T23:40:56.876Z,20.35
2018-05-06T23:43:24.455Z,20.36
2018-05-06T23:45:54.034Z,20.42
2018-05-06T23:48:21.667Z,20.39
2018-05-06T23:50:49.239Z,20.36
2018-05-06T23:53:16.820Z,20.40
2018-05-06T23:55:44.532Z,20.33
2018-05-06T23:58:12.191Z,20.31
